MET'MAP v2.0
soon released !

Expected late october,
this new version will be
more efficient, smarter,
and hosted on a brand new
server x3 powerfull...
...and still free !


Not compatible ?
Try the mobile version !

LOG IN : | Subscribe | Disclaimer | Who is Orbifly ? |
ICAO code :

TAF - ETSI Ingolstadt - 12 Nov 2019 06:45 UTC
Data Sources :     NOAA   


- Airport Elevation : 1202 ft
- IATA code : IGS
- No reported NOTAMs.


ETSI - Ingolstadt

Latest METAR recorded : 2015/08/11 07:20 ETSI 110720Z 31005KT 9999 FEW090 SCT300 23/18 Q1016 BLU+BLU+
TAF TAF ETSI
Valid from the 12 at 06:00 until the 12 at 15:00 UTC


120514Z 1206/1215 20005KT 9999 NSW FEW015 BKN040 BKN100
TEMPO 1206/1208 22005KT 9999 NSW BKN013 BKN040 BKN100

Source NOAA


MET'MAP, your aeronautical weather chart ! - Copyright ORBIFLY December 2007

Programming & Development : Alexandra Zaïnal
Co-Developer : Marc-Olivier Méhu
Technical & hardware support : Manuel Goepfert
Concept & Financing : Baudouin d'Aumeries